Markleeville, California
Current Conditions -  °F | °C
As of 7:53 AM on Friday 31 Oct 2014 (Local Time) from KTVL Reporting Station
Light Rain Light Rain  
Wind Chill: 42°   Ceiling: Unl
Heat Index: 49°   Visibility: 10mi
Dew Point: 28°   Wind: 20mph
Humidity: 44%   Direction: 180°S
Pressure: 29.9"   Gusts: NA
Location:  38.69°N, 119.78°W
Report Text: KTVL 311453Z AUTO 18017KT 10SM -RA CLR 09/M02 A2990 RMK AO2 PK WND 18028/1416 RAB18 SLP084 P0000 60000 T00941022 58011
Loading
Personal Weather Stations






























Interactive Weather Map
Tropical Storm Tracking
New forecast layout! Learn more

10-Day Weather Forecast

Advertisements
Track Severe Weather on mobile